Time;durP1;ratioP1;P1;durP2;ratioP2;P2;SDS_P1;SDS_P2;PMS_P1;PMS_P2;Temp;Humidity;BMP_temperature;BMP_pressure;BME280_temperature;BME280_humidity;BME280_pressure;Samples;Min_cycle;Max_cycle;Signal;HPM_P1;HPM_P2
2022/10/18 00:00:24;;;;;;;4.57;2.30;;;;;;;16.08;74.25;102488.28;5115499;28;20489;-67
2022/10/18 00:02:52;;;;;;;7.10;2.67;;;;;;;16.08;74.15;102488.28;5105967;28;20101;-67
2022/10/18 00:05:19;;;;;;;4.43;2.67;;;;;;;16.07;74.29;102481.19;5111185;28;20426;-67
2022/10/18 00:07:47;;;;;;;4.93;2.92;;;;;;;16.06;74.19;102476.81;5114202;28;20060;-67
2022/10/18 00:10:15;;;;;;;6.18;3.00;;;;;;;16.07;74.21;102467.63;5116210;28;20751;-67
2022/10/18 00:12:43;;;;;;;5.40;2.60;;;;;;;16.07;74.13;102472.22;5111121;28;20122;-67
2022/10/18 00:15:12;;;;;;;5.90;2.38;;;;;;;16.08;74.29;102463.03;5108864;28;20512;-67
2022/10/18 00:17:40;;;;;;;5.20;2.47;;;;;;;16.06;74.22;102465.97;5106663;28;20052;-67
2022/10/18 00:20:08;;;;;;;3.03;2.08;;;;;;;16.06;74.21;102462.44;5115803;28;20056;-67
2022/10/18 00:22:37;;;;;;;4.43;2.80;;;;;;;16.05;74.21;102458.88;5112735;28;20055;-67
2022/10/18 00:25:07;;;;;;;3.88;2.55;;;;;;;16.07;74.20;102466.81;5110367;28;20058;-67
2022/10/18 00:27:35;;;;;;;5.30;2.85;;;;;;;16.06;74.30;102465.16;5114406;28;20054;-66
2022/10/18 00:30:03;;;;;;;4.13;2.45;;;;;;;16.06;74.22;102460.56;5108512;28;20051;-67
2022/10/18 00:32:36;;;;;;;5.47;2.35;;;;;;;16.05;74.27;102453.47;5121249;27;20039;-67
2022/10/18 00:35:05;;;;;;;5.28;2.63;;;;;;;16.05;74.22;102458.06;5113127;28;20052;-67
2022/10/18 00:37:33;;;;;;;8.38;3.00;;;;;;;16.05;74.15;102463.47;5116683;28;20547;-67
2022/10/18 00:40:01;;;;;;;5.53;2.45;;;;;;;16.05;74.35;102467.03;5107777;28;20044;-67
2022/10/18 00:42:32;;;;;;;4.45;2.58;;;;;;;16.05;74.40;102471.63;5114473;28;20054;-67
2022/10/18 00:45:05;;;;;;;3.53;2.30;;;;;;;16.04;74.25;102472.66;5105869;28;20546;-67
2022/10/18 00:47:35;;;;;;;4.60;2.88;;;;;;;16.05;74.28;102474.31;5107465;28;20480;-67
2022/10/18 00:50:05;;;;;;;9.73;2.78;;;;;;;16.04;74.31;102478.09;5117456;28;20052;-66
2022/10/18 00:52:36;;;;;;;4.25;2.75;;;;;;;16.03;74.35;102463.69;5104485;28;20039;-67
2022/10/18 00:55:05;;;;;;;4.07;2.50;;;;;;;16.02;74.48;102467.47;5108278;28;20051;-66
2022/10/18 00:57:34;;;;;;;4.32;2.45;;;;;;;16.02;74.31;102469.34;5122312;28;20050;-67
2022/10/18 01:00:06;;;;;;;6.95;2.72;;;;;;;16.02;74.23;102477.47;5114594;28;20048;-67
2022/10/18 01:02:36;;;;;;;4.88;2.67;;;;;;;16.01;74.27;102476.66;5124760;28;20054;-67
2022/10/18 01:05:04;;;;;;;5.47;2.97;;;;;;;16.00;74.29;102472.28;5107360;28;20048;-67
2022/10/18 01:07:49;;;;;;;4.70;2.60;;;;;;;16.00;74.38;102477.69;5111069;28;20055;-68
2022/10/18 01:10:25;;;;;;;3.75;2.58;;;;;;;16.00;74.25;102480.41;5105044;28;20044;-67
2022/10/18 01:13:08;;;;;;;5.68;2.85;;;;;;;15.97;74.29;102475.41;5110207;28;20040;-68
2022/10/18 01:15:51;;;;;;;5.05;2.58;;;;;;;15.98;74.37;102482.50;5109993;28;20050;-68
2022/10/18 01:18:25;;;;;;;4.60;2.30;;;;;;;15.99;74.25;102480.63;5106577;28;20048;-67
2022/10/18 01:21:10;;;;;;;5.10;2.45;;;;;;;15.98;74.28;102485.22;5115050;28;20067;-68
2022/10/18 01:24:18;;;;;;;5.13;2.50;;;;;;;15.98;74.36;102485.22;5113338;28;20445;-68
2022/10/18 01:27:06;;;;;;;4.38;2.47;;;;;;;15.98;74.33;102487.09;5111275;28;20050;-67
2022/10/18 01:29:50;;;;;;;5.93;3.15;;;;;;;15.95;74.25;102478.34;5112518;28;20048;-67
2022/10/18 01:32:22;;;;;;;4.80;2.65;;;;;;;15.95;74.30;102478.34;5111107;28;20054;-67
2022/10/18 01:34:56;;;;;;;8.25;2.65;;;;;;;15.95;74.29;102483.78;5109417;28;20063;-67
2022/10/18 01:37:24;;;;;;;5.40;2.40;;;;;;;15.95;74.25;102483.78;5112460;28;20046;-67
2022/10/18 01:39:58;;;;;;;8.70;2.65;;;;;;;15.95;74.43;102486.47;5119667;28;20043;-67
2022/10/18 01:42:26;;;;;;;8.90;2.88;;;;;;;15.93;74.29;102488.59;5110966;28;20058;-67
2022/10/18 01:44:55;;;;;;;6.70;2.97;;;;;;;15.93;74.32;102487.75;5117388;28;20055;-67
2022/10/18 01:47:25;;;;;;;3.92;2.45;;;;;;;15.92;74.32;102491.50;5107225;28;20044;-67
2022/10/18 01:49:58;;;;;;;6.07;2.50;;;;;;;15.93;74.42;102491.28;5104315;28;20059;-67
2022/10/18 01:52:25;;;;;;;5.40;2.53;;;;;;;15.94;74.44;102486.69;5105273;28;20052;-68
2022/10/18 01:54:55;;;;;;;4.40;2.50;;;;;;;15.93;74.33;102482.31;5113454;28;20501;-67
2022/10/18 01:57:30;;;;;;;3.05;2.33;;;;;;;15.94;74.42;102489.41;5111248;28;20048;-67
2022/10/18 02:00:02;;;;;;;4.18;2.85;;;;;;;15.93;74.44;102490.47;5110763;28;20059;-67
2022/10/18 02:02:42;;;;;;;4.00;2.70;;;;;;;15.92;74.40;102489.63;5114360;28;20058;-67
2022/10/18 02:05:16;;;;;;;5.68;2.97;;;;;;;15.93;74.38;102485.03;5111598;28;20054;-67
2022/10/18 02:07:50;;;;;;;9.20;2.70;;;;;;;15.88;74.48;102469.41;5107388;28;20052;-67
2022/10/18 02:10:41;;;;;;;6.82;2.67;;;;;;;15.92;74.35;102481.50;5105651;28;20052;-67
2022/10/18 02:13:12;;;;;;;4.50;2.90;;;;;;;15.93;74.47;102479.63;5115568;28;20062;-67
2022/10/18 02:15:44;;;;;;;3.75;2.38;;;;;;;15.92;74.41;102483.38;5111101;28;20052;-67
2022/10/18 02:18:18;;;;;;;4.70;2.80;;;;;;;15.91;74.44;102487.13;5108557;28;20039;-67
2022/10/18 02:20:48;;;;;;;5.10;2.40;;;;;;;15.91;74.38;102493.38;5110637;28;20043;-67
2022/10/18 02:23:21;;;;;;;4.88;2.72;;;;;;;15.91;74.47;102489.84;5109755;28;20055;-67
2022/10/18 02:25:49;;;;;;;5.15;2.72;;;;;;;15.91;74.46;102484.41;5112583;28;20491;-68
2022/10/18 02:28:16;;;;;;;4.47;2.70;;;;;;;15.90;74.34;102491.72;5115973;28;20044;-67
2022/10/18 02:30:51;;;;;;;4.80;2.90;;;;;;;15.90;74.47;102489.00;5110064;28;20040;-67
2022/10/18 02:33:27;;;;;;;8.68;2.50;;;;;;;15.89;74.37;102492.78;5115908;28;20043;-67
2022/10/18 02:36:00;;;;;;;4.72;2.90;;;;;;;15.90;74.43;102491.72;5110943;28;20054;-67
2022/10/18 02:38:30;;;;;;;4.25;2.85;;;;;;;15.90;74.51;102485.47;5110158;28;20051;-67
2022/10/18 02:40:58;;;;;;;3.88;2.70;;;;;;;15.89;74.43;102495.47;5114864;28;20052;-67
2022/10/18 02:43:26;;;;;;;5.95;2.97;;;;;;;15.89;74.45;102502.78;5114694;28;20063;-67
2022/10/18 02:45:54;;;;;;;6.90;2.72;;;;;;;15.88;74.38;102499.25;5107972;28;20059;-67
2022/10/18 02:48:23;;;;;;;3.70;3.00;;;;;;;15.88;74.52;102493.00;5118484;28;20046;-67
2022/10/18 02:50:51;;;;;;;4.20;3.00;;;;;;;15.84;74.42;102486.34;5117465;28;20048;-67
2022/10/18 02:53:19;;;;;;;4.07;3.10;;;;;;;15.87;74.45;102494.03;5113539;28;20593;-67
2022/10/18 02:55:46;;;;;;;6.35;2.90;;;;;;;15.87;74.41;102485.91;5118087;28;20051;-67
2022/10/18 02:58:14;;;;;;;6.28;2.55;;;;;;;15.87;74.64;102489.44;5114715;28;20052;-67
2022/10/18 03:00:42;;;;;;;5.05;2.22;;;;;;;15.83;74.55;102488.22;5119706;28;20044;-67
2022/10/18 03:03:09;;;;;;;3.75;2.70;;;;;;;15.86;74.51;102497.81;5116371;28;20067;-67
2022/10/18 03:05:38;;;;;;;6.80;2.97;;;;;;;15.85;74.54;102496.97;5107504;28;20052;-67
2022/10/18 03:08:06;;;;;;;6.40;3.10;;;;;;;15.86;74.53;102492.38;5106934;28;20054;-67
2022/10/18 03:10:34;;;;;;;4.85;3.13;;;;;;;15.85;74.33;102493.44;5115637;28;20040;-68
2022/10/18 03:13:01;;;;;;;4.18;3.15;;;;;;;15.84;74.41;102495.31;5113970;28;20044;-67
2022/10/18 03:15:29;;;;;;;4.20;2.97;;;;;;;15.84;74.37;102495.31;5116731;28;20056;-67
2022/10/18 03:17:57;;;;;;;5.05;2.83;;;;;;;15.75;74.56;102480.34;5113820;28;20051;-67
2022/10/18 03:20:24;;;;;;;4.90;3.22;;;;;;;15.82;74.57;102489.28;5111698;28;20500;-67
2022/10/18 03:22:53;;;;;;;3.78;3.03;;;;;;;15.82;74.43;102496.56;5109155;28;20055;-67
2022/10/18 03:25:21;;;;;;;7.07;3.10;;;;;;;15.81;74.65;102495.75;5122378;28;20054;-67
2022/10/18 03:27:48;;;;;;;5.40;3.00;;;;;;;15.83;74.50;102495.53;5108866;28;20051;-67
2022/10/18 03:30:16;;;;;;;5.15;3.08;;;;;;;15.82;74.44;102508.25;5111422;28;20055;-67
2022/10/18 03:32:44;;;;;;;3.97;3.03;;;;;;;15.82;74.61;102510.97;5117390;28;20044;-67
2022/10/18 03:35:12;;;;;;;5.78;3.03;;;;;;;15.81;74.34;102506.59;5109435;28;20040;-67
2022/10/18 03:37:39;;;;;;;4.25;2.95;;;;;;;15.81;74.51;102511.16;5106182;28;20052;-67
2022/10/18 03:40:09;;;;;;;4.75;2.97;;;;;;;15.80;74.45;102510.34;5107772;28;20059;-67
2022/10/18 03:42:37;;;;;;;8.77;3.75;;;;;;;15.78;74.69;102506.19;5112301;28;20058;-67
2022/10/18 03:45:06;;;;;;;6.45;3.97;;;;;;;15.81;74.72;102509.28;5118048;27;20054;-67
2022/10/18 03:47:34;;;;;;;5.53;3.75;;;;;;;15.81;74.77;102497.63;5118206;28;20044;-67
2022/10/18 03:50:01;;;;;;;5.47;3.80;;;;;;;15.80;74.73;102504.91;5108835;28;20052;-67
2022/10/18 03:52:29;;;;;;;6.93;3.47;;;;;;;15.81;74.84;102497.63;5113676;28;20431;-67
2022/10/18 03:54:57;;;;;;;5.70;4.35;;;;;;;15.79;75.01;102495.13;5111214;28;20052;-67
2022/10/18 03:57:26;;;;;;;7.53;4.13;;;;;;;15.81;75.04;102492.19;5107286;28;20526;-67
2022/10/18 03:59:54;;;;;;;6.63;4.20;;;;;;;15.81;74.88;102497.63;5110513;28;20056;-67
2022/10/18 04:02:22;;;;;;;5.88;4.00;;;;;;;15.79;74.93;102492.41;5108861;28;20050;-66
2022/10/18 04:04:49;;;;;;;6.70;4.20;;;;;;;15.81;75.05;102494.91;5105699;28;20063;-66
2022/10/18 04:07:17;;;;;;;8.02;3.92;;;;;;;15.79;74.94;102492.41;5111026;28;20145;-66
2022/10/18 04:09:45;;;;;;;9.82;4.07;;;;;;;15.80;74.86;102493.25;5112118;28;20047;-67
2022/10/18 04:12:13;;;;;;;6.13;3.85;;;;;;;15.78;74.75;102488.03;5113973;28;20058;-66
2022/10/18 04:14:42;;;;;;;9.18;4.40;;;;;;;15.79;75.01;102489.69;5112091;28;20072;-66
2022/10/18 04:17:09;;;;;;;7.20;4.95;;;;;;;15.79;74.93;102484.28;5115313;28;20060;-66
2022/10/18 04:19:37;;;;;;;6.25;4.07;;;;;;;15.78;74.79;102496.16;5112740;28;20044;-67
2022/10/18 04:22:05;;;;;;;5.60;4.47;;;;;;;15.78;74.82;102504.31;5115275;28;20050;-66
2022/10/18 04:24:32;;;;;;;5.95;4.03;;;;;;;15.78;74.85;102496.16;5107172;28;20052;-67
2022/10/18 04:27:00;;;;;;;6.30;4.13;;;;;;;15.78;74.76;102500.75;5105844;28;20056;-67
2022/10/18 04:29:28;;;;;;;9.25;4.50;;;;;;;15.77;74.76;102505.34;5105880;28;20054;-66
2022/10/18 04:31:57;;;;;;;8.00;4.20;;;;;;;15.77;74.76;102497.22;5118062;28;20063;-66
2022/10/18 04:34:24;;;;;;;4.97;3.70;;;;;;;15.77;74.72;102499.94;5108432;28;20121;-66
2022/10/18 04:36:53;;;;;;;7.63;4.35;;;;;;;15.76;74.76;102498.25;5113591;28;20054;-67
2022/10/18 04:39:20;;;;;;;5.90;4.25;;;;;;;15.76;74.83;102502.84;5112865;28;20048;-67
2022/10/18 04:41:48;;;;;;;6.63;3.70;;;;;;;15.75;74.71;102496.59;5112031;28;20043;-67
2022/10/18 04:44:16;;;;;;;5.53;4.32;;;;;;;15.75;74.72;102504.72;5111002;28;20111;-67
2022/10/18 04:46:43;;;;;;;7.38;3.90;;;;;;;15.75;74.72;102514.75;5103445;28;20063;-68
2022/10/18 04:49:13;;;;;;;7.60;4.00;;;;;;;15.74;74.81;102515.78;5108320;28;20051;-68
2022/10/18 04:51:41;;;;;;;7.47;4.13;;;;;;;15.70;74.70;102498.28;5115701;28;20052;-68
2022/10/18 04:54:08;;;;;;;6.53;3.90;;;;;;;15.74;74.68;102500.34;5107222;28;20052;-67
2022/10/18 04:56:36;;;;;;;7.47;4.43;;;;;;;15.73;74.63;102508.72;5113381;28;20047;-67
2022/10/18 04:59:04;;;;;;;5.45;4.00;;;;;;;15.72;74.71;102517.88;5115925;28;20044;-67
2022/10/18 05:01:31;;;;;;;8.10;4.45;;;;;;;15.71;74.68;102522.47;5112183;28;20055;-72
2022/10/18 05:03:59;;;;;;;7.40;5.43;;;;;;;15.71;74.49;102517.06;5111814;28;20065;-72
2022/10/18 05:06:28;;;;;;;6.82;3.97;;;;;;;15.71;74.66;102510.81;5108922;28;20050;-71
2022/10/18 05:08:56;;;;;;;5.70;4.68;;;;;;;15.70;74.46;102515.41;5108396;28;20040;-67
2022/10/18 05:11:23;;;;;;;6.13;3.92;;;;;;;15.70;74.56;102517.28;5112204;28;20047;-67
2022/10/18 05:13:51;;;;;;;5.97;4.13;;;;;;;15.69;74.47;102515.59;5106713;28;20067;-67
2022/10/18 05:16:19;;;;;;;5.40;4.05;;;;;;;15.69;74.61;102512.91;5104846;28;20046;-68
2022/10/18 05:18:47;;;;;;;7.57;4.10;;;;;;;15.68;74.35;102522.91;5104600;28;20048;-67
2022/10/18 05:21:14;;;;;;;5.88;4.28;;;;;;;15.68;74.43;102528.31;5107709;28;20048;-68
2022/10/18 05:23:43;;;;;;;6.00;4.20;;;;;;;15.68;74.43;102530.22;5105832;28;20071;-66
2022/10/18 05:26:11;;;;;;;8.65;4.20;;;;;;;15.67;74.38;102525.84;5106161;28;20055;-67
2022/10/18 05:28:39;;;;;;;6.57;3.90;;;;;;;15.66;74.53;102526.88;5114119;28;20489;-67
2022/10/18 05:31:11;;;;;;;8.10;4.28;;;;;;;15.58;74.32;102509.00;5107017;28;20459;-66
2022/10/18 05:33:39;;;;;;;8.85;4.30;;;;;;;15.66;74.45;102519.56;5111063;28;20063;-66
2022/10/18 05:36:07;;;;;;;6.47;3.97;;;;;;;15.65;74.46;102517.91;5106363;28;20142;-67
2022/10/18 05:38:37;;;;;;;12.90;4.85;;;;;;;15.65;74.44;102523.34;5107468;28;20048;-66
2022/10/18 05:41:06;;;;;;;6.68;5.05;;;;;;;15.65;74.62;102527.91;5109965;28;20043;-69
2022/10/18 05:43:34;;;;;;;7.32;4.88;;;;;;;15.65;74.57;102531.47;5106152;28;20048;-67
2022/10/18 05:46:03;;;;;;;8.00;5.35;;;;;;;15.64;74.39;102532.50;5106300;28;20051;-67
2022/10/18 05:48:30;;;;;;;14.80;5.57;;;;;;;15.63;74.62;102531.69;5119138;28;20043;-67
2022/10/18 05:50:58;;;;;;;9.05;5.13;;;;;;;15.63;74.59;102539.81;5112435;28;20052;-66
2022/10/18 05:53:26;;;;;;;6.97;5.13;;;;;;;15.63;74.37;102536.28;5107559;28;20047;-67
2022/10/18 05:56:11;;;;;;;8.43;5.53;;;;;;;15.62;74.37;102538.16;4756196;28;10000379;-66
2022/10/18 05:58:40;;;;;;;8.80;6.55;;;;;;;15.62;74.95;102540.03;5109036;28;20048;-63
2022/10/18 06:01:09;;;;;;;12.38;6.40;;;;;;;15.62;74.87;102548.16;5111849;28;20047;-64
2022/10/18 06:03:36;;;;;;;10.73;6.43;;;;;;;15.62;74.80;102553.56;5117060;28;20043;-63
2022/10/18 06:06:06;;;;;;;8.30;5.65;;;;;;;15.60;74.71;102545.66;5105976;28;20048;-63
2022/10/18 06:08:35;;;;;;;9.13;6.20;;;;;;;15.62;74.83;102559.84;5112224;28;20135;-63
2022/10/18 06:11:06;;;;;;;10.48;6.32;;;;;;;15.62;74.64;102561.72;5114065;28;20055;-63
2022/10/18 06:13:39;;;;;;;8.88;6.07;;;;;;;15.61;74.68;102566.28;5104696;28;20048;-63
2022/10/18 06:16:08;;;;;;;6.82;5.47;;;;;;;15.62;74.61;102562.53;5105007;28;20047;-63
2022/10/18 06:18:36;;;;;;;9.23;6.30;;;;;;;15.62;74.62;102559.84;5112012;28;20055;-63
2022/10/18 06:21:04;;;;;;;9.70;5.55;;;;;;;15.59;74.55;102557.56;5103446;28;20127;-63
2022/10/18 06:23:31;;;;;;;11.35;6.95;;;;;;;15.61;74.67;102565.47;5122819;28;20248;-64
2022/10/18 06:26:00;;;;;;;8.20;6.07;;;;;;;15.60;74.56;102563.84;5119453;28;20130;-63
2022/10/18 06:28:29;;;;;;;10.40;6.68;;;;;;;15.59;74.44;102567.59;5103203;28;20058;-63
2022/10/18 06:30:58;;;;;;;7.68;5.10;;;;;;;15.60;74.60;102563.84;5103651;28;20112;-63
2022/10/18 06:33:26;;;;;;;9.52;5.38;;;;;;;15.60;74.38;102563.84;5103290;28;20051;-67
2022/10/18 06:35:55;;;;;;;10.30;6.22;;;;;;;15.59;74.45;102570.28;5104233;28;20074;-63
2022/10/18 06:38:23;;;;;;;9.32;5.55;;;;;;;15.58;74.39;102561.34;5108831;28;20115;-65
2022/10/18 06:40:51;;;;;;;7.78;5.80;;;;;;;15.58;74.40;102566.75;5105550;28;20054;-64
2022/10/18 06:43:18;;;;;;;8.38;5.60;;;;;;;15.58;74.48;102574.88;5103771;28;20048;-64
2022/10/18 06:45:48;;;;;;;10.27;5.78;;;;;;;15.57;74.54;102575.09;5103823;28;20044;-64
2022/10/18 06:48:17;;;;;;;10.77;6.18;;;;;;;15.56;74.35;102579.66;5102453;28;20055;-64
2022/10/18 06:50:55;;;;;;;8.90;5.75;;;;;;;15.57;74.25;102580.53;5103996;28;20059;-64
2022/10/18 06:53:24;;;;;;;7.93;5.45;;;;;;;15.55;74.07;102580.69;5103513;28;20048;-64
2022/10/18 06:55:53;;;;;;;9.65;5.97;;;;;;;15.55;74.16;102586.13;5103829;28;20052;-64
2022/10/18 06:58:20;;;;;;;6.90;5.47;;;;;;;15.54;74.39;102587.16;5103446;28;20063;-64
2022/10/18 07:00:48;;;;;;;8.90;5.78;;;;;;;15.53;74.42;102592.78;5103782;28;20062;-64
2022/10/18 07:03:17;;;;;;;10.75;6.20;;;;;;;15.53;74.36;102595.50;5103222;28;20050;-64
2022/10/18 07:05:44;;;;;;;7.63;5.47;;;;;;;15.52;74.18;102591.13;5104067;28;20052;-63
2022/10/18 07:08:12;;;;;;;8.43;6.40;;;;;;;15.52;74.28;102601.97;5111463;28;20061;-63
2022/10/18 07:10:40;;;;;;;9.43;6.20;;;;;;;15.51;74.29;102611.97;5111324;28;20052;-64
2022/10/18 07:13:08;;;;;;;9.52;6.25;;;;;;;15.52;74.19;102616.34;5115146;28;20122;-64
2022/10/18 07:16:04;;;;;;;7.45;5.72;;;;;;;15.51;74.35;102613.84;5113367;28;20098;-64
2022/10/18 07:18:34;;;;;;;12.63;7.00;;;;;;;15.51;74.25;102617.41;5122664;28;20043;-64
2022/10/18 07:21:03;;;;;;;9.80;7.45;;;;;;;15.50;74.59;102629.28;5108055;28;20040;-64
2022/10/18 07:23:32;;;;;;;11.70;7.68;;;;;;;15.51;74.58;102630.94;5106630;28;20048;-64
2022/10/18 07:26:00;;;;;;;13.25;7.75;;;;;;;15.50;74.60;102634.69;5112097;28;20089;-64
2022/10/18 07:28:29;;;;;;;13.50;7.30;;;;;;;15.50;74.53;102639.28;5114653;28;20060;-63
2022/10/18 07:30:56;;;;;;;12.27;7.57;;;;;;;15.48;74.61;102636.78;5107085;28;20215;-64
2022/10/18 07:33:30;;;;;;;15.70;7.45;;;;;;;15.48;74.38;102641.38;5106610;28;20048;-63
2022/10/18 07:36:02;;;;;;;13.35;8.20;;;;;;;15.49;74.43;102653.88;5107004;28;20421;-64
2022/10/18 07:38:30;;;;;;;10.93;7.57;;;;;;;15.48;74.58;102657.63;5106306;28;20058;-64
2022/10/18 07:40:58;;;;;;;10.85;7.43;;;;;;;15.48;74.62;102653.03;5107063;28;20048;-64
2022/10/18 07:43:26;;;;;;;11.18;7.22;;;;;;;15.48;74.60;102657.63;5106512;28;20062;-64
2022/10/18 07:45:54;;;;;;;14.43;8.88;;;;;;;15.47;74.72;102656.78;5107336;28;20052;-64
2022/10/18 07:48:22;;;;;;;12.48;8.45;;;;;;;15.53;74.95;102674.09;5110811;28;20420;-63
2022/10/18 07:50:50;;;;;;;16.83;9.05;;;;;;;15.65;74.63;102677.84;5106941;28;20048;-64
2022/10/18 07:53:19;;;;;;;13.50;9.20;;;;;;;15.80;74.53;102670.28;5111295;28;20044;-64
2022/10/18 07:55:47;;;;;;;20.50;9.75;;;;;;;15.92;73.78;102674.03;5114067;28;20044;-64
2022/10/18 07:58:14;;;;;;;15.57;9.82;;;;;;;15.98;73.45;102685.91;5118437;28;20067;-64
2022/10/18 08:00:43;;;;;;;14.48;9.07;;;;;;;15.98;73.40;102696.75;5112878;28;20044;-64
2022/10/18 08:03:10;;;;;;;18.50;12.38;;;;;;;15.97;74.04;102691.53;5106230;28;20044;-63
2022/10/18 08:05:38;;;;;;;17.00;10.20;;;;;;;15.92;74.28;102694.88;5106941;28;20044;-64
2022/10/18 08:08:06;;;;;;;17.02;10.25;;;;;;;15.89;74.19;102706.16;5106672;28;20052;-65
2022/10/18 08:10:36;;;;;;;21.98;10.90;;;;;;;15.84;74.61;102711.38;5113918;28;20107;-63
2022/10/18 08:13:04;;;;;;;18.80;9.13;;;;;;;15.80;74.24;102708.25;5112583;28;20058;-63
2022/10/18 08:15:31;;;;;;;17.60;10.13;;;;;;;15.79;74.78;102708.47;5102558;28;20063;-64
2022/10/18 08:17:59;;;;;;;17.30;9.80;;;;;;;15.74;74.58;102709.09;5103697;28;20067;-64
2022/10/18 08:20:27;;;;;;;17.38;10.35;;;;;;;15.74;74.89;102713.69;5109224;28;20048;-63
2022/10/18 08:22:58;;;;;;;19.58;11.05;;;;;;;15.73;74.96;102714.72;5112810;28;20051;-63
2022/10/18 08:25:27;;;;;;;20.60;11.38;;;;;;;15.71;74.94;102723.06;5117502;28;20069;-63
2022/10/18 08:27:57;;;;;;;18.08;9.52;;;;;;;15.70;75.09;102715.16;5113033;28;20087;-64
2022/10/18 08:30:24;;;;;;;20.48;11.20;;;;;;;15.69;75.36;102714.31;5108342;28;20048;-63
2022/10/18 08:32:52;;;;;;;22.23;10.32;;;;;;;15.69;75.28;102718.91;5111676;28;20107;-64
2022/10/18 08:35:20;;;;;;;16.58;8.90;;;;;;;15.66;75.15;102722.88;5117217;28;20048;-63
2022/10/18 08:37:48;;;;;;;19.00;10.23;;;;;;;15.66;75.34;102728.28;5109205;28;20055;-63
2022/10/18 08:40:16;;;;;;;21.27;11.75;;;;;;;15.66;75.50;102733.72;5113889;28;20052;-63
2022/10/18 08:42:59;;;;;;;24.83;11.77;;;;;;;15.66;75.67;102738.28;5118518;28;20162;-63
2022/10/18 08:45:28;;;;;;;17.80;11.13;;;;;;;15.65;75.65;102731.22;5108796;28;20499;-63
2022/10/18 08:48:20;;;;;;;21.85;11.10;;;;;;;15.63;75.40;102740.38;5108955;28;20052;-63
2022/10/18 08:50:50;;;;;;;14.48;8.77;;;;;;;15.65;75.31;102742.06;5109391;28;20044;-64
2022/10/18 08:53:24;;;;;;;18.13;10.07;;;;;;;15.64;75.52;102738.50;5109457;28;20050;-63
2022/10/18 08:55:57;;;;;;;18.65;9.73;;;;;;;15.63;75.47;102743.09;5112475;28;20058;-63
2022/10/18 08:58:30;;;;;;;21.60;11.00;;;;;;;15.60;75.38;102748.94;5108439;28;20040;-65
2022/10/18 09:01:07;;;;;;;17.00;8.45;;;;;;;15.59;75.50;102744.59;5113635;28;20048;-64
2022/10/18 09:03:47;;;;;;;;;;;;;;;15.57;75.47;102738.53;5106038;28;20050;-64
2022/10/18 09:06:22;;;;;;;18.50;8.85;;;;;;;15.59;75.57;102746.47;5105222;28;19995;-63
2022/10/18 09:09:03;;;;;;;16.23;8.70;;;;;;;15.58;75.49;102747.50;5115061;28;20059;-64
2022/10/18 09:11:50;;;;;;;19.77;9.70;;;;;;;15.58;75.59;102745.63;5105259;28;20051;-64
2022/10/18 09:14:33;;;;;;;;;;;;;;;15.60;75.49;102745.41;5111341;28;20043;-64
2022/10/18 09:17:10;;;;;;;18.65;8.70;;;;;;;15.59;75.49;102741.88;5109758;28;19977;-63
2022/10/18 09:19:58;;;;;;;17.67;9.65;;;;;;;15.61;75.40;102744.34;5107683;28;20575;-64
2022/10/18 09:22:37;;;;;;;20.90;9.65;;;;;;;15.61;75.29;102753.31;5104800;28;20073;-63
2022/10/18 09:25:16;;;;;;;13.80;7.72;;;;;;;15.63;75.34;102742.25;5107951;28;20052;-63
2022/10/18 09:27:51;;;;;;;16.20;7.90;;;;;;;15.65;75.27;102742.06;5115841;28;20054;-63
2022/10/18 09:30:29;;;;;;;20.63;9.52;;;;;;;15.65;75.47;102742.06;5108894;28;20040;-62
2022/10/18 09:33:10;;;;;;;12.43;7.68;;;;;;;15.64;75.32;102749.34;5103035;28;20375;-64
2022/10/18 09:35:43;;;;;;;14.65;8.55;;;;;;;15.65;75.20;102750.19;5108357;28;20048;-63
2022/10/18 09:38:14;;;;;;;16.10;9.82;;;;;;;15.65;75.13;102748.31;5113210;28;20393;-63
2022/10/18 09:40:51;;;;;;;13.38;7.93;;;;;;;15.67;75.25;102748.09;5108903;28;20048;-63
2022/10/18 09:43:23;;;;;;;16.50;8.70;;;;;;;15.68;75.07;102756.03;4393608;28;10001131;-63
2022/10/18 09:45:54;;;;;;;16.65;8.40;;;;;;;15.69;75.09;102754.97;5093376;28;20048;-63
2022/10/18 09:48:27;;;;;;;20.38;8.23;;;;;;;15.71;75.12;102758.31;5093884;28;20054;-63
2022/10/18 09:50:59;;;;;;;16.25;7.80;;;;;;;15.72;75.07;102751.84;5091247;28;20044;-62
2022/10/18 09:53:35;;;;;;;14.27;7.03;;;;;;;15.73;74.97;102756.22;5094872;28;20060;-63
2022/10/18 09:56:07;;;;;;;19.55;7.13;;;;;;;15.75;75.13;102740.59;5094628;28;20325;-63
2022/10/18 09:58:42;;;;;;;17.25;7.72;;;;;;;15.77;74.88;102759.34;5095926;28;20044;-63
2022/10/18 10:01:14;;;;;;;19.77;7.05;;;;;;;15.77;74.89;102753.94;5092177;28;20067;-63
2022/10/18 10:03:43;;;;;;;20.92;9.02;;;;;;;15.79;74.80;102749.13;5095592;28;20097;-63
2022/10/18 10:06:23;;;;;;;15.73;6.63;;;;;;;15.80;74.86;102748.09;5089991;28;20093;-63
2022/10/18 10:08:57;;;;;;;20.77;8.18;;;;;;;15.80;74.98;102750.81;5095966;28;20048;-63
2022/10/18 10:11:34;;;;;;;14.00;6.35;;;;;;;15.80;74.98;102759.78;5097345;28;20572;-63
2022/10/18 10:14:10;;;;;;;17.17;7.72;;;;;;;15.86;74.84;102766.22;5094263;28;20085;-62
2022/10/18 10:16:51;;;;;;;20.25;7.35;;;;;;;15.83;74.77;102750.38;5104086;28;20357;-62
2022/10/18 10:19:24;;;;;;;12.40;6.35;;;;;;;15.88;74.87;102748.72;5104109;28;20560;-63
2022/10/18 10:21:56;;;;;;;15.40;5.82;;;;;;;15.86;74.97;102739.94;5108492;28;20036;-63
2022/10/18 10:24:29;;;;;;;15.88;5.82;;;;;;;15.92;74.81;102749.94;5104535;28;20040;-63
2022/10/18 10:27:04;;;;;;;19.20;5.63;;;;;;;15.94;75.05;102755.16;5110305;28;20119;-62
2022/10/18 10:29:52;;;;;;;18.02;5.97;;;;;;;15.95;75.00;102745.97;5104539;28;20058;-64
2022/10/18 10:32:22;;;;;;;13.80;5.35;;;;;;;15.99;74.96;102740.97;5114700;28;20127;-63
2022/10/18 10:34:52;;;;;;;16.60;5.82;;;;;;;16.00;74.93;102739.94;5107694;28;20063;-63
2022/10/18 10:37:28;;;;;;;14.98;5.47;;;;;;;16.02;74.88;102746.81;5107907;28;20044;-63
2022/10/18 10:40:18;;;;;;;12.32;5.72;;;;;;;16.04;75.02;102761.00;5106321;28;20058;-63
2022/10/18 10:43:01;;;;;;;18.30;6.18;;;;;;;16.06;74.96;102758.91;5103122;28;20513;-63
2022/10/18 10:45:57;;;;;;;15.95;6.15;;;;;;;16.08;74.90;102777.69;5104943;28;20113;-63
2022/10/18 10:48:26;;;;;;;18.73;7.65;;;;;;;16.08;74.61;102769.53;5111317;28;20044;-64
2022/10/18 10:51:04;;;;;;;13.18;4.95;;;;;;;16.08;74.50;102761.41;5111727;28;20062;-63
2022/10/18 10:53:37;;;;;;;9.52;4.65;;;;;;;16.13;74.56;102767.03;5114191;28;20050;-63
2022/10/18 10:56:06;;;;;;;11.27;4.95;;;;;;;16.15;74.54;102773.06;5111171;28;20100;-63
2022/10/18 10:58:37;;;;;;;11.98;5.38;;;;;;;16.17;74.35;102784.53;5107990;28;20071;-63
2022/10/18 11:01:24;;;;;;;17.17;5.28;;;;;;;16.18;74.22;102778.91;5110644;28;20371;-63
2022/10/18 11:03:54;;;;;;;17.00;6.43;;;;;;;16.21;73.90;102780.38;5109610;28;20060;-63
2022/10/18 11:06:50;;;;;;;15.05;5.78;;;;;;;16.15;73.81;102767.66;5115239;28;20048;-63
2022/10/18 11:09:33;;;;;;;13.85;5.07;;;;;;;16.24;73.68;102778.06;5107435;28;20044;-63
2022/10/18 11:12:08;;;;;;;17.40;5.07;;;;;;;16.27;73.90;102785.78;5110788;28;20043;-63
2022/10/18 11:14:41;;;;;;;16.33;4.28;;;;;;;16.31;74.04;102780.75;5111782;28;20416;-63
2022/10/18 11:20:56;;;;;;;11.00;4.20;;;;;;;16.36;73.76;102778.25;5104196;28;21164;-63
2022/10/18 11:23:32;;;;;;;15.38;4.68;;;;;;;16.38;73.54;102775.31;5111612;28;20048;-63
2022/10/18 11:26:20;;;;;;;13.65;4.18;;;;;;;16.41;72.92;102774.88;5113098;28;20056;-64
2022/10/18 11:29:22;;;;;;;15.43;5.10;;;;;;;16.42;71.94;102777.38;5114285;28;20047;-66
2022/10/18 11:32:00;;;;;;;16.48;4.90;;;;;;;16.44;72.18;102774.47;5099540;28;20040;-63
2022/10/18 11:34:47;;;;;;;16.83;5.25;;;;;;;16.46;71.39;102777.78;5109701;28;20508;-64
2022/10/18 11:37:31;;;;;;;18.70;4.90;;;;;;;16.47;70.47;102776.75;5111032;28;20044;-64
2022/10/18 11:40:19;;;;;;;14.90;4.18;;;;;;;16.48;70.21;102779.25;5115475;28;20124;-64
2022/10/18 11:42:56;;;;;;;16.55;3.95;;;;;;;16.49;70.89;102775.47;5110308;28;20048;-64
2022/10/18 11:45:32;;;;;;;13.20;4.72;;;;;;;16.49;71.34;102763.78;5111186;28;20048;-64